createdAt,value
2019-05-26T00:00:56.988Z,100179.83
2019-05-26T00:06:02.004Z,100182.23
2019-05-26T00:11:08.119Z,100184.31
2019-05-26T00:16:13.254Z,100190.48
2019-05-26T00:21:18.387Z,100178.80
2019-05-26T00:26:23.509Z,100183.77
2019-05-26T00:31:28.945Z,100168.65
2019-05-26T00:36:34.132Z,100166.19
2019-05-26T00:41:40.305Z,100166.53
2019-05-26T00:46:45.605Z,100163.97
2019-05-26T00:51:51.679Z,100166.59
2019-05-26T00:56:56.809Z,100162.94
2019-05-26T01:02:01.900Z,100160.82
2019-05-26T01:07:06.937Z,100154.68
2019-05-26T01:12:11.985Z,100158.53
2019-05-26T01:17:17.170Z,100158.41
2019-05-26T01:22:22.198Z,100159.17
2019-05-26T01:27:27.264Z,100158.50
2019-05-26T01:32:32.419Z,100154.41
2019-05-26T01:37:37.886Z,100148.42
2019-05-26T01:42:43.072Z,100148.16
2019-05-26T01:47:48.539Z,100142.88
2019-05-26T01:52:53.607Z,100144.68
2019-05-26T01:57:58.731Z,100144.88
2019-05-26T02:03:03.792Z,100149.73
2019-05-26T02:08:11.767Z,100143.09
2019-05-26T02:13:15.774Z,100146.71
2019-05-26T02:18:20.876Z,100140.23
2019-05-26T02:23:25.965Z,100136.23
2019-05-26T02:28:31.376Z,100126.61
2019-05-26T02:33:36.756Z,100124.55
2019-05-26T02:38:59.746Z,100120.85
2019-05-26T02:43:48.667Z,100116.73
2019-05-26T02:48:53.727Z,100117.70
2019-05-26T02:53:58.857Z,100108.87
2019-05-26T02:59:03.921Z,100110.45
2019-05-26T03:04:09.212Z,100118.44
2019-05-26T03:09:22.648Z,100119.02
2019-05-26T03:14:22.423Z,100113.98
2019-05-26T03:19:28.108Z,100118.94
2019-05-26T03:24:34.049Z,100110.03
2019-05-26T03:29:40.133Z,100112.73
2019-05-26T03:34:45.697Z,100116.69
2019-05-26T03:39:51.115Z,100110.30
2019-05-26T03:44:56.194Z,100110.55
2019-05-26T03:50:01.481Z,100106.63
2019-05-26T03:55:09.749Z,100114.52
2019-05-26T04:00:15.118Z,100110.78
2019-05-26T04:05:20.289Z,100110.48
2019-05-26T04:10:25.287Z,100111.27
2019-05-26T04:15:30.334Z,100111.86
2019-05-26T04:20:35.374Z,100109.89
2019-05-26T04:25:40.486Z,100106.45
2019-05-26T04:30:45.610Z,100106.41
2019-05-26T04:35:50.651Z,100102.64
2019-05-26T04:40:56.055Z,100118.02
2019-05-26T04:46:01.057Z,100120.42
2019-05-26T04:51:06.089Z,100121.67
2019-05-26T04:56:11.209Z,100119.45
2019-05-26T05:01:16.588Z,100126.02
2019-05-26T05:06:21.735Z,100131.75
2019-05-26T05:11:26.876Z,100128.92
2019-05-26T05:16:31.979Z,100117.67
2019-05-26T05:21:37.067Z,100115.35
2019-05-26T05:26:42.278Z,100111.69
2019-05-26T05:31:47.364Z,100112.03
2019-05-26T05:36:52.455Z,100110.56
2019-05-26T05:41:57.492Z,100100.20
2019-05-26T05:47:02.624Z,100111.75
2019-05-26T05:52:07.971Z,100110.52
2019-05-26T05:57:13.013Z,100105.66
2019-05-26T06:02:18.055Z,100101.92
2019-05-26T06:07:25.019Z,100101.19
2019-05-26T06:12:30.209Z,100100.35
2019-05-26T06:17:35.391Z,100085.84
2019-05-26T06:22:40.483Z,100083.64
2019-05-26T06:27:45.881Z,100084.73
2019-05-26T06:32:51.016Z,100085.72
2019-05-26T06:37:56.191Z,100073.98
2019-05-26T06:43:01.227Z,100073.29
2019-05-26T06:48:06.380Z,100061.33
2019-05-26T06:53:11.507Z,100065.39
2019-05-26T06:58:16.597Z,100069.17
2019-05-26T07:03:21.964Z,100073.06
2019-05-26T07:08:27.011Z,100078.61
2019-05-26T07:13:32.455Z,100078.44
2019-05-26T07:18:37.663Z,100076.90
2019-05-26T07:23:42.957Z,100075.43
2019-05-26T07:28:48.028Z,100080.72
2019-05-26T07:33:53.073Z,100070.66
2019-05-26T07:38:58.149Z,100075.20
2019-05-26T07:44:03.215Z,100071.31
2019-05-26T07:49:08.366Z,100059.50
2019-05-26T07:54:25.041Z,100067.05
2019-05-26T07:59:20.481Z,100056.99
2019-05-26T08:04:25.751Z,100051.64
2019-05-26T08:09:30.852Z,100044.84
2019-05-26T08:14:37.025Z,100053.98
2019-05-26T08:19:43.258Z,100041.80
2019-05-26T08:24:48.306Z,100041.74
2019-05-26T08:29:53.365Z,100037.14
2019-05-26T08:34:58.565Z,100035.31
2019-05-26T08:40:18.736Z,100020.14
2019-05-26T08:45:24.004Z,100007.55
2019-05-26T08:50:29.454Z,100001.75
2019-05-26T08:55:34.551Z,100003.71
2019-05-26T09:00:39.654Z,99994.91
2019-05-26T09:05:44.872Z,99992.81
2019-05-26T09:10:50.354Z,99995.86
2019-05-26T09:15:55.445Z,99993.87
2019-05-26T09:21:00.499Z,99981.64
2019-05-26T09:26:07.021Z,99984.77
2019-05-26T09:31:12.408Z,99975.12
2019-05-26T09:36:17.596Z,99972.68
2019-05-26T09:41:22.697Z,99970.34
2019-05-26T09:46:27.806Z,99974.33
2019-05-26T09:51:33.155Z,99968.17
2019-05-26T09:56:38.333Z,99977.95
2019-05-26T10:01:43.545Z,99960.08
2019-05-26T10:06:49.595Z,99957.28
2019-05-26T10:11:54.676Z,99950.31
2019-05-26T10:16:59.735Z,99950.34
2019-05-26T10:22:04.806Z,99938.03
2019-05-26T10:27:10.916Z,99950.55
2019-05-26T10:32:16.005Z,99936.31
2019-05-26T10:37:21.495Z,99942.88
2019-05-26T10:42:26.604Z,99938.74
2019-05-26T10:47:31.624Z,99935.24
2019-05-26T10:52:36.890Z,99920.18
2019-05-26T10:57:42.004Z,99922.05
2019-05-26T11:02:47.197Z,99928.24
2019-05-26T11:07:52.667Z,99913.03
2019-05-26T11:12:58.053Z,99912.41
2019-05-26T11:18:03.124Z,99891.88
2019-05-26T11:23:08.204Z,99895.02
2019-05-26T11:28:13.716Z,99881.80
2019-05-26T11:33:18.865Z,99873.38
2019-05-26T11:38:24.040Z,99870.61
2019-05-26T11:43:29.107Z,99873.06
2019-05-26T11:48:34.238Z,99862.86
2019-05-26T11:53:39.275Z,99862.15
2019-05-26T11:58:44.438Z,99852.67
2019-05-26T12:03:49.507Z,99844.85
2019-05-26T12:08:54.679Z,99837.21
2019-05-26T12:13:59.845Z,99826.14
2019-05-26T12:19:05.374Z,99828.58
2019-05-26T12:24:10.475Z,99818.92
2019-05-26T12:29:15.694Z,99818.78
2019-05-26T12:34:20.778Z,99816.93
2019-05-26T12:39:25.884Z,99799.86
2019-05-26T12:44:30.933Z,99792.95
2019-05-26T12:49:35.514Z,99798.30
2019-05-26T12:54:41.491Z,99784.64
2019-05-26T12:59:46.950Z,99797.10
2019-05-26T13:04:52.097Z,99798.22
2019-05-26T13:09:57.323Z,99788.86
2019-05-26T13:15:05.925Z,99793.11
2019-05-26T13:20:13.425Z,99787.53
2019-05-26T13:25:20.155Z,99784.09
2019-05-26T13:30:28.055Z,99781.72
2019-05-26T13:35:33.254Z,99772.70
2019-05-26T13:40:38.555Z,99763.36
2019-05-26T13:45:43.657Z,99765.00
2019-05-26T13:50:48.734Z,99768.69
2019-05-26T13:55:55.351Z,99765.52
2019-05-26T14:01:00.372Z,99755.05
2019-05-26T14:06:05.651Z,99755.88
2019-05-26T14:11:10.752Z,99751.89
2019-05-26T14:16:15.909Z,99751.41
2019-05-26T14:21:20.952Z,99747.02
2019-05-26T14:26:25.994Z,99732.35
2019-05-26T14:31:31.052Z,99746.34
2019-05-26T14:36:36.254Z,99725.13
2019-05-26T14:41:41.337Z,99733.37
2019-05-26T14:46:46.396Z,99719.37
2019-05-26T14:51:51.486Z,99732.58
2019-05-26T14:56:56.683Z,99719.45
2019-05-26T15:02:03.673Z,99710.34
2019-05-26T15:07:09.008Z,99719.87
2019-05-26T15:12:14.066Z,99712.09
2019-05-26T15:17:19.412Z,99705.28
2019-05-26T15:22:26.435Z,99700.62
2019-05-26T15:27:31.491Z,99713.19
2019-05-26T15:32:36.548Z,99701.58
2019-05-26T15:37:41.636Z,99695.97
2019-05-26T15:42:47.052Z,99696.15
2019-05-26T15:47:52.090Z,99684.89
2019-05-26T15:52:57.204Z,99688.30
2019-05-26T15:58:02.409Z,99684.85
2019-05-26T16:03:07.523Z,99674.30
2019-05-26T16:08:12.935Z,99658.47
2019-05-26T16:13:18.228Z,99660.17
2019-05-26T16:18:23.290Z,99679.78
2019-05-26T16:23:28.574Z,99666.37
2019-05-26T16:28:33.949Z,99660.25
2019-05-26T16:33:39.058Z,99658.83
2019-05-26T16:38:44.401Z,99658.13
2019-05-26T16:43:49.464Z,99660.25
2019-05-26T16:48:55.048Z,99666.36
2019-05-26T16:54:00.323Z,99649.27
2019-05-26T16:59:05.976Z,99647.49
2019-05-26T17:04:11.116Z,99656.17
2019-05-26T17:09:16.314Z,99649.19
2019-05-26T17:14:21.832Z,99646.53
2019-05-26T17:19:27.034Z,99650.73
2019-05-26T17:24:33.589Z,99648.48
2019-05-26T17:29:38.913Z,99649.63
2019-05-26T17:34:44.024Z,99645.98
2019-05-26T17:39:49.590Z,99643.48
2019-05-26T17:44:54.757Z,99638.75
2019-05-26T17:50:00.309Z,99638.95
2019-05-26T17:55:05.954Z,99631.98
2019-05-26T18:00:12.028Z,99638.98
2019-05-26T18:05:17.427Z,99628.02
2019-05-26T18:10:22.604Z,99627.47
2019-05-26T18:15:27.751Z,99627.13
2019-05-26T18:20:32.771Z,99626.67
2019-05-26T18:25:37.794Z,99623.31
2019-05-26T18:30:43.160Z,99612.48
2019-05-26T18:35:48.322Z,99615.52
2019-05-26T18:40:53.403Z,99613.33
2019-05-26T18:45:58.710Z,99610.95
2019-05-26T18:51:04.352Z,99607.88
2019-05-26T18:56:09.402Z,99603.33
2019-05-26T19:01:15.044Z,99610.80
2019-05-26T19:06:20.390Z,99605.21
2019-05-26T19:11:25.451Z,99603.92
2019-05-26T19:16:30.552Z,99597.86
2019-05-26T19:21:35.698Z,99603.73
2019-05-26T19:26:40.777Z,99598.86
2019-05-26T19:31:46.068Z,99605.98
2019-05-26T19:36:51.152Z,99606.79
2019-05-26T19:41:56.612Z,99604.25
2019-05-26T19:47:02.640Z,99595.33
2019-05-26T19:52:07.725Z,99599.71
2019-05-26T19:57:14.319Z,99594.68
2019-05-26T20:02:19.504Z,99590.92
2019-05-26T20:07:24.589Z,99587.27
2019-05-26T20:12:29.685Z,99593.59
2019-05-26T20:17:34.690Z,99593.66
2019-05-26T20:22:39.787Z,99591.55
2019-05-26T20:27:44.850Z,99586.46
2019-05-26T20:32:49.903Z,99584.20
2019-05-26T20:37:55.034Z,99584.86
2019-05-26T20:43:00.113Z,99582.95
2019-05-26T20:48:05.468Z,99584.38
2019-05-26T20:53:10.867Z,99583.45
2019-05-26T20:58:16.410Z,99575.09
2019-05-26T21:03:21.551Z,99575.13
2019-05-26T21:08:26.716Z,99571.94
2019-05-26T21:13:31.740Z,99562.57
2019-05-26T21:18:36.796Z,99569.00
2019-05-26T21:23:43.020Z,99563.34
2019-05-26T21:28:48.096Z,99563.09
2019-05-26T21:33:53.561Z,99563.59
2019-05-26T21:38:58.619Z,99563.45
2019-05-26T21:44:03.628Z,99559.11
2019-05-26T21:49:09.101Z,99561.58
2019-05-26T21:54:14.157Z,99552.81
2019-05-26T21:59:19.207Z,99552.06
2019-05-26T22:04:24.363Z,99538.97
2019-05-26T22:09:31.536Z,99541.70
2019-05-26T22:14:36.566Z,99540.12
2019-05-26T22:19:42.574Z,99533.34
2019-05-26T22:24:47.695Z,99536.02
2019-05-26T22:29:52.735Z,99528.28
2019-05-26T22:34:57.841Z,99525.11
2019-05-26T22:40:02.897Z,99516.18
2019-05-26T22:45:09.772Z,99508.84
2019-05-26T22:50:17.826Z,99505.94
2019-05-26T22:55:22.802Z,99509.10
2019-05-26T23:00:28.093Z,99508.78
2019-05-26T23:05:33.189Z,99504.97
2019-05-26T23:10:38.341Z,99501.55
2019-05-26T23:15:43.407Z,99502.02
2019-05-26T23:20:48.424Z,99499.50
2019-05-26T23:25:53.456Z,99498.87
2019-05-26T23:30:58.576Z,99494.62
2019-05-26T23:36:03.574Z,99494.55
2019-05-26T23:41:08.974Z,99494.45
2019-05-26T23:46:14.307Z,99492.35
2019-05-26T23:51:19.404Z,99493.89
2019-05-26T23:56:24.505Z,99494.13
